Terminal Aerodrome Forecast
Issued by NWS

Current Version | Previous Version | Text Only | Print | Product List | Glossary On
Versions: 1 2 3 4 5 6 7 8 9 10 11 12 13 14 15 16 17 18
000
FTUS43 KMQT 062322
TAFSAW
TAF
KSAW 062322Z 0700/0724 01014KT 2SM SHRA BR OVC005
     FM070200 34013G18KT 5SM -SHRA BR OVC006
     FM070500 33008KT P6SM BKN015
     FM070800 35009KT P6SM BKN025
     FM071400 35010KT P6SM SCT035=

USA.gov is the U.S. government's official web portal to all federal, state and local government web resources and services.